PWSweather.com
Personal Weather Stations
Station Observations
KMAMEDFI2
Medfield, MA 02052

Medfield, MA 02052

Lat: 42.1900822, Lon: -71.3296889

Elevation: 138

Station Type: Rainwise WS MK-III

http://www.medfieldweather.com

High Low Average
Temperature 19.8°F-6.8°C 2.3°F-16.5°C 9.7°F-12.4°C
Dew Point 3.4°F-15.9°C -6.7°F-21.5°C -1.8°F-18.8°C
Winds 10.4 mph 16.7 kmh Calm Calm 2.0 mph W3.2 kmh W
Wind Gusts 15.0 mph24.1 kmh -- 4.0 mph6.4 kmh
Humidity 89% 42% 60%
Pressure 30.33 in1027.1 mb 30.23 in1023.7 mb -
Precipitation 0.00 in0.0 mm - -
Hour Temp Dew Point Humidity Winds Wind Gusts Pressure Precip Precip Rate Daily Precip Total
12:00 AM 6.9°F-13.9°C -5.5°F-20.8°C 56% Calm Calm 2.3 mph3.7 kmh 30.26 in1024.7 mb - 0.00 in0.0 mm 0.00 in0.0 mm
12:10 AM 6.9°F-13.9°C -5.9°F-21.1°C 55% 1.2 mph W1.9 kmh W 1.2 mph1.9 kmh 30.26 in1024.7 mb - 0.00 in0.0 mm 0.00 in0.0 mm
12:20 AM 6.9°F-13.9°C -5.5°F-20.8°C 56% 1.2 mph NW1.9 kmh NW 5.8 mph9.3 kmh 30.26 in1024.7 mb - 0.00 in0.0 mm 0.00 in0.0 mm
12:30 AM 6.8°F-14.0°C -5.6°F-20.9°C 56% Calm Calm -- 30.26 in1024.7 mb - 0.00 in0.0 mm 0.00 in0.0 mm
12:40 AM 6.5°F-14.2°C -5.5°F-20.8°C 57% 3.5 mph W5.6 kmh W 2.3 mph3.7 kmh 30.26 in1024.7 mb - 0.00 in0.0 mm 0.00 in0.0 mm
12:50 AM 6.3°F-14.3°C -5.7°F-20.9°C 57% 1.2 mph WSW1.9 kmh WSW 2.3 mph3.7 kmh 30.26 in1024.7 mb - 0.00 in0.0 mm 0.00 in0.0 mm
01:00 AM 6.4°F-14.2°C -5.3°F-20.7°C 58% 1.2 mph WSW1.9 kmh WSW 2.3 mph3.7 kmh 30.26 in1024.7 mb - 0.00 in0.0 mm 0.00 in0.0 mm
01:10 AM 6.1°F-14.4°C -5.5°F-20.8°C 58% 2.3 mph WSW3.7 kmh WSW 3.5 mph5.6 kmh 30.25 in1024.4 mb - 0.00 in0.0 mm 0.00 in0.0 mm
01:20 AM 6.4°F-14.2°C -5.6°F-20.9°C 57% 2.3 mph W3.7 kmh W 1.2 mph1.9 kmh 30.25 in1024.4 mb - 0.00 in0.0 mm 0.00 in0.0 mm
01:30 AM 6.1°F-14.4°C -5.5°F-20.8°C 58% 2.3 mph WSW3.7 kmh WSW 2.3 mph3.7 kmh 30.25 in1024.4 mb - 0.00 in0.0 mm 0.00 in0.0 mm
01:40 AM 5.9°F-14.5°C -5.4°F-20.8°C 59% 2.3 mph W3.7 kmh W 2.3 mph3.7 kmh 30.24 in1024.0 mb - 0.00 in0.0 mm 0.00 in0.0 mm
01:50 AM 5.9°F-14.5°C -5.4°F-20.8°C 59% 1.2 mph WSW1.9 kmh WSW 2.3 mph3.7 kmh 30.24 in1024.0 mb - 0.00 in0.0 mm 0.00 in0.0 mm
02:00 AM 5.5°F-14.7°C -5.1°F-20.6°C 61% 1.2 mph W1.9 kmh W 2.3 mph3.7 kmh 30.24 in1024.0 mb - 0.00 in0.0 mm 0.00 in0.0 mm
02:10 AM 5.2°F-14.9°C -4.7°F-20.4°C 63% Calm Calm -- 30.26 in1024.7 mb - 0.00 in0.0 mm 0.00 in0.0 mm
02:20 AM 4.9°F-15.1°C -4.6°F-20.3°C 64% 1.2 mph WNW1.9 kmh WNW 2.3 mph3.7 kmh 30.26 in1024.7 mb - 0.00 in0.0 mm 0.00 in0.0 mm
02:30 AM 5.1°F-14.9°C -4.8°F-20.4°C 63% 2.3 mph SSW3.7 kmh SSW 2.3 mph3.7 kmh 30.26 in1024.7 mb - 0.00 in0.0 mm 0.00 in0.0 mm
02:40 AM 5.2°F-14.9°C -5.0°F-20.6°C 62% 1.2 mph SW1.9 kmh SW -- 30.26 in1024.7 mb - 0.00 in0.0 mm 0.00 in0.0 mm
02:50 AM 4.9°F-15.1°C -5.0°F-20.6°C 63% Calm Calm -- 30.26 in1024.7 mb - 0.00 in0.0 mm 0.00 in0.0 mm
03:00 AM 4.7°F-15.2°C -5.1°F-20.6°C 63% Calm Calm 1.2 mph1.9 kmh 30.26 in1024.7 mb - 0.00 in0.0 mm 0.00 in0.0 mm
03:10 AM 4.9°F-15.1°C -5.3°F-20.7°C 62% Calm Calm -- 30.26 in1024.7 mb - 0.00 in0.0 mm 0.00 in0.0 mm
03:20 AM 4.7°F-15.2°C -5.2°F-20.7°C 63% Calm Calm 2.3 mph3.7 kmh 30.26 in1024.7 mb - 0.00 in0.0 mm 0.00 in0.0 mm
03:30 AM 4.4°F-15.3°C -5.1°F-20.6°C 64% Calm Calm -- 30.26 in1024.7 mb - 0.00 in0.0 mm 0.00 in0.0 mm
03:40 AM 3.9°F-15.6°C -4.9°F-20.5°C 66% Calm Calm -- 30.26 in1024.7 mb - 0.00 in0.0 mm 0.00 in0.0 mm
03:50 AM 2.9°F-16.2°C -5.6°F-20.9°C 67% Calm Calm -- 30.26 in1024.7 mb - 0.00 in0.0 mm 0.00 in0.0 mm
04:00 AM 2.9°F-16.2°C -5.3°F-20.7°C 68% Calm Calm -- 30.26 in1024.7 mb - 0.00 in0.0 mm 0.00 in0.0 mm
04:10 AM 2.6°F-16.3°C -5.3°F-20.7°C 69% Calm Calm -- 30.26 in1024.7 mb - 0.00 in0.0 mm 0.00 in0.0 mm
04:20 AM 2.3°F-16.5°C -5.0°F-20.6°C 71% 2.3 mph W3.7 kmh W 2.3 mph3.7 kmh 30.26 in1024.7 mb - 0.00 in0.0 mm 0.00 in0.0 mm
04:30 AM 2.6°F-16.3°C -5.0°F-20.6°C 70% Calm Calm -- 30.26 in1024.7 mb - 0.00 in0.0 mm 0.00 in0.0 mm
04:40 AM 2.6°F-16.3°C -5.9°F-21.1°C 67% Calm Calm -- 30.26 in1024.7 mb - 0.00 in0.0 mm 0.00 in0.0 mm
04:50 AM 2.8°F-16.2°C -6.0°F-21.1°C 66% Calm Calm -- 30.26 in1024.7 mb - 0.00 in0.0 mm 0.00 in0.0 mm
05:00 AM 2.6°F-16.3°C -5.9°F-21.1°C 67% 1.2 mph NW1.9 kmh NW 2.3 mph3.7 kmh 30.26 in1024.7 mb - 0.00 in0.0 mm 0.00 in0.0 mm
05:10 AM 2.8°F-16.2°C -5.7°F-20.9°C 67% Calm Calm -- 30.26 in1024.7 mb - 0.00 in0.0 mm 0.00 in0.0 mm
05:20 AM 2.8°F-16.2°C -5.7°F-20.9°C 67% Calm Calm -- 30.27 in1025.1 mb - 0.00 in0.0 mm 0.00 in0.0 mm
05:30 AM 2.8°F-16.2°C -5.4°F-20.8°C 68% Calm Calm 5.8 mph9.3 kmh 30.27 in1025.1 mb - 0.00 in0.0 mm 0.00 in0.0 mm
05:40 AM 3.6°F-15.8°C -5.5°F-20.8°C 65% 2.3 mph W3.7 kmh W 2.3 mph3.7 kmh 30.27 in1025.1 mb - 0.00 in0.0 mm 0.00 in0.0 mm
05:50 AM 4.1°F-15.5°C -5.1°F-20.6°C 65% Calm Calm 2.3 mph3.7 kmh 30.26 in1024.7 mb - 0.00 in0.0 mm 0.00 in0.0 mm
06:00 AM 4.4°F-15.3°C -5.4°F-20.8°C 63% 1.2 mph W1.9 kmh W 2.3 mph3.7 kmh 30.26 in1024.7 mb - 0.00 in0.0 mm 0.00 in0.0 mm
06:10 AM 4.8°F-15.1°C -5.7°F-20.9°C 61% 3.5 mph W5.6 kmh W 3.5 mph5.6 kmh 30.27 in1025.1 mb - 0.00 in0.0 mm 0.00 in0.0 mm
06:20 AM 4.9°F-15.1°C -5.6°F-20.9°C 61% 1.2 mph WNW1.9 kmh WNW 3.5 mph5.6 kmh 30.28 in1025.4 mb - 0.00 in0.0 mm 0.00 in0.0 mm
06:30 AM 5.1°F-14.9°C -5.8°F-21.0°C 60% 3.5 mph WSW5.6 kmh WSW 5.8 mph9.3 kmh 30.28 in1025.4 mb - 0.00 in0.0 mm 0.00 in0.0 mm
06:40 AM 5.2°F-14.9°C -5.7°F-20.9°C 60% 2.3 mph SW3.7 kmh SW 5.8 mph9.3 kmh 30.28 in1025.4 mb - 0.00 in0.0 mm 0.00 in0.0 mm
06:50 AM 5.2°F-14.9°C -6.0°F-21.1°C 59% 3.5 mph WNW5.6 kmh WNW 9.2 mph14.8 kmh 30.28 in1025.4 mb - 0.00 in0.0 mm 0.00 in0.0 mm
07:00 AM 5.3°F-14.8°C -5.9°F-21.1°C 59% 3.5 mph WNW5.6 kmh WNW 5.8 mph9.3 kmh 30.28 in1025.4 mb - 0.00 in0.0 mm 0.00 in0.0 mm
07:10 AM 5.2°F-14.9°C -6.0°F-21.1°C 59% 1.2 mph WSW1.9 kmh WSW 6.9 mph11.1 kmh 30.28 in1025.4 mb - 0.00 in0.0 mm 0.00 in0.0 mm
07:20 AM 4.9°F-15.1°C -6.0°F-21.1°C 60% 3.5 mph W5.6 kmh W 6.9 mph11.1 kmh 30.28 in1025.4 mb - 0.00 in0.0 mm 0.00 in0.0 mm
07:30 AM 4.9°F-15.1°C -6.0°F-21.1°C 60% 4.6 mph W7.4 kmh W 8.1 mph13.0 kmh 30.28 in1025.4 mb - 0.00 in0.0 mm 0.00 in0.0 mm
07:40 AM 4.8°F-15.1°C -5.7°F-20.9°C 61% 2.3 mph WNW3.7 kmh WNW 5.8 mph9.3 kmh 30.29 in1025.7 mb - 0.00 in0.0 mm 0.00 in0.0 mm
07:50 AM 4.8°F-15.1°C -6.1°F-21.2°C 60% 6.9 mph W11.1 kmh W 6.9 mph11.1 kmh 30.29 in1025.7 mb - 0.00 in0.0 mm 0.00 in0.0 mm
08:00 AM 4.8°F-15.1°C -6.4°F-21.3°C 59% 2.3 mph SW3.7 kmh SW 5.8 mph9.3 kmh 30.29 in1025.7 mb - 0.00 in0.0 mm 0.00 in0.0 mm
08:10 AM 4.9°F-15.1°C -6.3°F-21.3°C 59% 6.9 mph SW11.1 kmh SW 9.2 mph14.8 kmh 30.29 in1025.7 mb - 0.00 in0.0 mm 0.00 in0.0 mm
08:20 AM 4.8°F-15.1°C -6.4°F-21.3°C 59% 2.3 mph W3.7 kmh W 5.8 mph9.3 kmh 30.29 in1025.7 mb - 0.00 in0.0 mm 0.00 in0.0 mm
08:30 AM 4.9°F-15.1°C -6.3°F-21.3°C 59% 1.2 mph W1.9 kmh W 2.3 mph3.7 kmh 30.30 in1026.1 mb - 0.00 in0.0 mm 0.00 in0.0 mm
08:40 AM 5.2°F-14.9°C -6.4°F-21.3°C 58% 3.5 mph NW5.6 kmh NW 5.8 mph9.3 kmh 30.30 in1026.1 mb - 0.00 in0.0 mm 0.00 in0.0 mm
08:50 AM 5.5°F-14.7°C -6.5°F-21.4°C 57% 4.6 mph NW7.4 kmh NW 5.8 mph9.3 kmh 30.31 in1026.4 mb - 0.00 in0.0 mm 0.00 in0.0 mm
09:00 AM 5.9°F-14.5°C -6.1°F-21.2°C 57% 3.5 mph WSW5.6 kmh WSW 8.1 mph13.0 kmh 30.31 in1026.4 mb - 0.00 in0.0 mm 0.00 in0.0 mm
09:10 AM 6.4°F-14.2°C -6.7°F-21.5°C 54% 4.6 mph WSW7.4 kmh WSW 2.3 mph3.7 kmh 30.31 in1026.4 mb - 0.00 in0.0 mm 0.00 in0.0 mm
09:20 AM 6.9°F-13.9°C -6.7°F-21.5°C 53% 4.6 mph W7.4 kmh W 3.5 mph5.6 kmh 30.31 in1026.4 mb - 0.00 in0.0 mm 0.00 in0.0 mm
09:30 AM 7.9°F-13.4°C -5.7°F-20.9°C 53% 3.5 mph WSW5.6 kmh WSW 5.8 mph9.3 kmh 30.31 in1026.4 mb - 0.00 in0.0 mm 0.00 in0.0 mm
09:40 AM 8.4°F-13.1°C -6.5°F-21.4°C 50% 5.8 mph WNW9.3 kmh WNW 6.9 mph11.1 kmh 30.31 in1026.4 mb - 0.00 in0.0 mm 0.00 in0.0 mm
09:50 AM 8.4°F-13.1°C -6.0°F-21.1°C 51% 4.6 mph WSW7.4 kmh WSW 6.9 mph11.1 kmh 30.31 in1026.4 mb - 0.00 in0.0 mm 0.00 in0.0 mm
10:00 AM 8.7°F-12.9°C -5.8°F-21.0°C 51% 3.5 mph W5.6 kmh W 2.3 mph3.7 kmh 30.32 in1026.8 mb - 0.00 in0.0 mm 0.00 in0.0 mm
10:10 AM 9.1°F-12.7°C -5.8°F-21.0°C 50% 2.3 mph WNW3.7 kmh WNW 3.5 mph5.6 kmh 30.33 in1027.1 mb - 0.00 in0.0 mm 0.00 in0.0 mm
10:20 AM 9.6°F-12.4°C -5.8°F-21.0°C 49% 2.3 mph SW3.7 kmh SW 2.3 mph3.7 kmh 30.33 in1027.1 mb - 0.00 in0.0 mm 0.00 in0.0 mm
10:30 AM 10.3°F-12.1°C -4.7°F-20.4°C 50% 3.5 mph WSW5.6 kmh WSW 8.1 mph13.0 kmh 30.32 in1026.8 mb - 0.00 in0.0 mm 0.00 in0.0 mm
10:40 AM 11.5°F-11.4°C -3.6°F-19.8°C 50% 2.3 mph WNW3.7 kmh WNW 5.8 mph9.3 kmh 30.32 in1026.8 mb - 0.00 in0.0 mm 0.00 in0.0 mm
10:50 AM 12.6°F-10.8°C -3.4°F-19.7°C 48% 3.5 mph S5.6 kmh S 8.1 mph13.0 kmh 30.32 in1026.8 mb - 0.00 in0.0 mm 0.00 in0.0 mm
11:00 AM 12.8°F-10.7°C -2.8°F-19.3°C 49% 5.8 mph WNW9.3 kmh WNW 9.2 mph14.8 kmh 30.32 in1026.8 mb - 0.00 in0.0 mm 0.00 in0.0 mm
11:10 AM 13.8°F-10.1°C -2.3°F-19.1°C 48% 3.5 mph W5.6 kmh W 8.1 mph13.0 kmh 30.32 in1026.8 mb - 0.00 in0.0 mm 0.00 in0.0 mm
11:20 AM 14.3°F-9.8°C -2.7°F-19.3°C 46% 5.8 mph W9.3 kmh W 6.9 mph11.1 kmh 30.32 in1026.8 mb - 0.00 in0.0 mm 0.00 in0.0 mm
11:30 AM 15.6°F-9.1°C -1.5°F-18.6°C 46% 3.5 mph SW5.6 kmh SW 6.9 mph11.1 kmh 30.32 in1026.8 mb - 0.00 in0.0 mm 0.00 in0.0 mm
11:40 AM 16.0°F-8.9°C -1.1°F-18.4°C 46% 3.5 mph WSW5.6 kmh WSW 5.8 mph9.3 kmh 30.33 in1027.1 mb - 0.00 in0.0 mm 0.00 in0.0 mm
11:50 AM 16.7°F-8.5°C -0.5°F-18.1°C 46% 5.8 mph WNW9.3 kmh WNW 6.9 mph11.1 kmh 30.32 in1026.8 mb - 0.00 in0.0 mm 0.00 in0.0 mm
12:00 PM 16.8°F-8.4°C -0.9°F-18.3°C 45% 6.9 mph SW11.1 kmh SW 8.1 mph13.0 kmh 30.31 in1026.4 mb - 0.00 in0.0 mm 0.00 in0.0 mm
12:10 PM 17.4°F-8.1°C -1.3°F-18.5°C 43% 5.8 mph NW9.3 kmh NW 11.5 mph18.5 kmh 30.31 in1026.4 mb - 0.00 in0.0 mm 0.00 in0.0 mm
12:20 PM 17.9°F-7.8°C -0.4°F-18.0°C 44% 5.8 mph NW9.3 kmh NW 8.1 mph13.0 kmh 30.31 in1026.4 mb - 0.00 in0.0 mm 0.00 in0.0 mm
12:30 PM 17.8°F-7.9°C -0.9°F-18.3°C 43% 6.9 mph WSW11.1 kmh WSW 15.0 mph24.1 kmh 30.31 in1026.4 mb - 0.00 in0.0 mm 0.00 in0.0 mm
12:40 PM 17.8°F-7.9°C -1.0°F-18.3°C 43% 10.4 mph WSW16.7 kmh WSW 11.5 mph18.5 kmh 30.30 in1026.1 mb - 0.00 in0.0 mm 0.00 in0.0 mm
12:50 PM 17.7°F-7.9°C -0.6°F-18.1°C 44% 5.8 mph WSW9.3 kmh WSW 8.1 mph13.0 kmh 30.29 in1025.7 mb - 0.00 in0.0 mm 0.00 in0.0 mm
01:00 PM 18.7°F-7.4°C 0.8°F-17.3°C 45% 3.5 mph NW5.6 kmh NW 5.8 mph9.3 kmh 30.29 in1025.7 mb - 0.00 in0.0 mm 0.00 in0.0 mm
01:10 PM 19.2°F-7.1°C 0.3°F-17.6°C 43% 6.9 mph WSW11.1 kmh WSW 15.0 mph24.1 kmh 30.28 in1025.4 mb - 0.00 in0.0 mm 0.00 in0.0 mm
01:20 PM 19.1°F-7.2°C 0.7°F-17.4°C 44% 5.8 mph NW9.3 kmh NW 10.4 mph16.7 kmh 30.28 in1025.4 mb - 0.00 in0.0 mm 0.00 in0.0 mm
01:30 PM 18.9°F-7.3°C 0.5°F-17.5°C 44% 4.6 mph NNW7.4 kmh NNW 9.2 mph14.8 kmh 30.27 in1025.1 mb - 0.00 in0.0 mm 0.00 in0.0 mm
01:40 PM 19.1°F-7.2°C 0.8°F-17.3°C 44% 3.5 mph W5.6 kmh W 2.3 mph3.7 kmh 30.27 in1025.1 mb - 0.00 in0.0 mm 0.00 in0.0 mm
01:50 PM 19.6°F-6.9°C 0.7°F-17.4°C 43% 5.8 mph NW9.3 kmh NW 9.2 mph14.8 kmh 30.27 in1025.1 mb - 0.00 in0.0 mm 0.00 in0.0 mm
02:00 PM 19.2°F-7.1°C -0.2°F-17.9°C 42% 10.4 mph WSW16.7 kmh WSW 11.5 mph18.5 kmh 30.27 in1025.1 mb - 0.00 in0.0 mm 0.00 in0.0 mm
02:10 PM 19.4°F-7.0°C 0.5°F-17.5°C 43% 4.6 mph W7.4 kmh W 11.5 mph18.5 kmh 30.26 in1024.7 mb - 0.00 in0.0 mm 0.00 in0.0 mm
02:20 PM 19.4°F-7.0°C 0.5°F-17.5°C 43% 6.9 mph W11.1 kmh W 8.1 mph13.0 kmh 30.26 in1024.7 mb - 0.00 in0.0 mm 0.00 in0.0 mm
02:30 PM 19.4°F-7.0°C 0.0°F-17.8°C 42% 8.1 mph WSW13.0 kmh WSW 10.4 mph16.7 kmh 30.26 in1024.7 mb - 0.00 in0.0 mm 0.00 in0.0 mm
02:40 PM 19.1°F-7.2°C -0.3°F-17.9°C 42% 9.2 mph WSW14.8 kmh WSW 10.4 mph16.7 kmh 30.26 in1024.7 mb - 0.00 in0.0 mm 0.00 in0.0 mm
02:50 PM 18.9°F-7.3°C 0.5°F-17.5°C 44% 4.6 mph W7.4 kmh W 6.9 mph11.1 kmh 30.26 in1024.7 mb - 0.00 in0.0 mm 0.00 in0.0 mm
03:00 PM 19.1°F-7.2°C 0.3°F-17.6°C 43% 8.1 mph NW13.0 kmh NW 10.4 mph16.7 kmh 30.25 in1024.4 mb - 0.00 in0.0 mm 0.00 in0.0 mm
03:10 PM 19.2°F-7.1°C 0.8°F-17.3°C 44% 9.2 mph SW14.8 kmh SW 13.8 mph22.2 kmh 30.25 in1024.4 mb - 0.00 in0.0 mm 0.00 in0.0 mm
03:20 PM 19.8°F-6.8°C 1.4°F-17.0°C 44% 2.3 mph W3.7 kmh W 3.5 mph5.6 kmh 30.25 in1024.4 mb - 0.00 in0.0 mm 0.00 in0.0 mm
03:30 PM 19.7°F-6.8°C 0.3°F-17.6°C 42% 6.9 mph W11.1 kmh W 11.5 mph18.5 kmh 30.25 in1024.4 mb - 0.00 in0.0 mm 0.00 in0.0 mm
03:40 PM 19.7°F-6.8°C 0.7°F-17.4°C 43% 9.2 mph WSW14.8 kmh WSW 15.0 mph24.1 kmh 30.24 in1024.0 mb - 0.00 in0.0 mm 0.00 in0.0 mm
03:50 PM 18.9°F-7.3°C 0.5°F-17.5°C 44% 4.6 mph WNW7.4 kmh WNW 10.4 mph16.7 kmh 30.24 in1024.0 mb - 0.00 in0.0 mm 0.00 in0.0 mm
04:00 PM 18.7°F-7.4°C 0.3°F-17.6°C 44% 6.9 mph WSW11.1 kmh WSW 10.4 mph16.7 kmh 30.24 in1024.0 mb - 0.00 in0.0 mm 0.00 in0.0 mm
04:10 PM 18.5°F-7.5°C 0.7°F-17.4°C 45% 4.6 mph WSW7.4 kmh WSW 6.9 mph11.1 kmh 30.24 in1024.0 mb - 0.00 in0.0 mm 0.00 in0.0 mm
04:20 PM 18.6°F-7.4°C 0.8°F-17.3°C 45% 2.3 mph WSW3.7 kmh WSW 8.1 mph13.0 kmh 30.25 in1024.4 mb - 0.00 in0.0 mm 0.00 in0.0 mm
04:30 PM 18.4°F-7.6°C 0.6°F-17.4°C 45% 4.6 mph WSW7.4 kmh WSW 5.8 mph9.3 kmh 30.24 in1024.0 mb - 0.00 in0.0 mm 0.00 in0.0 mm
04:40 PM 18.5°F-7.5°C 1.2°F-17.1°C 46% 3.5 mph WSW5.6 kmh WSW 5.8 mph9.3 kmh 30.24 in1024.0 mb - 0.00 in0.0 mm 0.00 in0.0 mm
04:50 PM 18.7°F-7.4°C 0.8°F-17.3°C 45% 3.5 mph WSW5.6 kmh WSW 3.5 mph5.6 kmh 30.24 in1024.0 mb - 0.00 in0.0 mm 0.00 in0.0 mm
05:00 PM 18.1°F-7.7°C -0.2°F-17.9°C 44% 4.6 mph WSW7.4 kmh WSW 5.8 mph9.3 kmh 30.24 in1024.0 mb - 0.00 in0.0 mm 0.00 in0.0 mm
06:10 PM 15.9°F-8.9°C 0.5°F-17.5°C 50% Calm Calm -- 30.24 in1024.0 mb - 0.00 in0.0 mm 0.00 in0.0 mm
06:20 PM 15.2°F-9.3°C 1.1°F-17.2°C 53% 1.2 mph WSW1.9 kmh WSW 2.3 mph3.7 kmh 30.24 in1024.0 mb - 0.00 in0.0 mm 0.00 in0.0 mm
06:30 PM 14.4°F-9.8°C 0.3°F-17.6°C 53% Calm Calm -- 30.24 in1024.0 mb - 0.00 in0.0 mm 0.00 in0.0 mm
06:40 PM 13.9°F-10.1°C 1.5°F-16.9°C 57% 1.2 mph WSW1.9 kmh WSW -- 30.24 in1024.0 mb - 0.00 in0.0 mm 0.00 in0.0 mm
06:50 PM 13.5°F-10.3°C 1.4°F-17.0°C 58% Calm Calm -- 30.24 in1024.0 mb - 0.00 in0.0 mm 0.00 in0.0 mm
07:00 PM 12.7°F-10.7°C 2.4°F-16.4°C 63% Calm Calm -- 30.24 in1024.0 mb - 0.00 in0.0 mm 0.00 in0.0 mm
07:10 PM 12.2°F-11.0°C 1.7°F-16.8°C 62% Calm Calm -- 30.24 in1024.0 mb - 0.00 in0.0 mm 0.00 in0.0 mm
07:20 PM 11.6°F-11.3°C 2.4°F-16.4°C 66% Calm Calm -- 30.24 in1024.0 mb - 0.00 in0.0 mm 0.00 in0.0 mm
07:30 PM 10.4°F-12.0°C 1.3°F-17.1°C 66% Calm Calm -- 30.24 in1024.0 mb - 0.00 in0.0 mm 0.00 in0.0 mm
07:40 PM 9.5°F-12.5°C 2.0°F-16.7°C 71% Calm Calm -- 30.25 in1024.4 mb - 0.00 in0.0 mm 0.00 in0.0 mm
07:50 PM 9.7°F-12.4°C 2.8°F-16.2°C 73% Calm Calm -- 30.25 in1024.4 mb - 0.00 in0.0 mm 0.00 in0.0 mm
08:00 PM 9.8°F-12.3°C 2.3°F-16.5°C 71% Calm Calm -- 30.25 in1024.4 mb - 0.00 in0.0 mm 0.00 in0.0 mm
08:10 PM 10.1°F-12.2°C 2.9°F-16.2°C 72% Calm Calm -- 30.24 in1024.0 mb - 0.00 in0.0 mm 0.00 in0.0 mm
08:20 PM 9.6°F-12.4°C 3.3°F-15.9°C 75% Calm Calm -- 30.24 in1024.0 mb - 0.00 in0.0 mm 0.00 in0.0 mm
08:30 PM 9.5°F-12.5°C 2.9°F-16.2°C 74% Calm Calm -- 30.25 in1024.4 mb - 0.00 in0.0 mm 0.00 in0.0 mm
08:40 PM 9.5°F-12.5°C 2.6°F-16.3°C 73% Calm Calm -- 30.24 in1024.0 mb - 0.00 in0.0 mm 0.00 in0.0 mm
08:50 PM 9.3°F-12.6°C 2.7°F-16.3°C 74% Calm Calm -- 30.25 in1024.4 mb - 0.00 in0.0 mm 0.00 in0.0 mm
09:00 PM 9.5°F-12.5°C 2.3°F-16.5°C 72% 1.2 mph W1.9 kmh W 1.2 mph1.9 kmh 30.25 in1024.4 mb - 0.00 in0.0 mm 0.00 in0.0 mm
09:10 PM 10.2°F-12.1°C 2.7°F-16.3°C 71% 1.2 mph W1.9 kmh W -- 30.25 in1024.4 mb - 0.00 in0.0 mm 0.00 in0.0 mm
09:20 PM 9.8°F-12.3°C 2.9°F-16.2°C 73% Calm Calm -- 30.25 in1024.4 mb - 0.00 in0.0 mm 0.00 in0.0 mm
09:30 PM 9.2°F-12.7°C 3.4°F-15.9°C 77% Calm Calm -- 30.25 in1024.4 mb - 0.00 in0.0 mm 0.00 in0.0 mm
09:40 PM 8.5°F-13.1°C 2.8°F-16.2°C 77% Calm Calm -- 30.25 in1024.4 mb - 0.00 in0.0 mm 0.00 in0.0 mm
09:50 PM 7.9°F-13.4°C 3.0°F-16.1°C 80% Calm Calm -- 30.25 in1024.4 mb - 0.00 in0.0 mm 0.00 in0.0 mm
10:00 PM 7.9°F-13.4°C 3.0°F-16.1°C 80% Calm Calm -- 30.25 in1024.4 mb - 0.00 in0.0 mm 0.00 in0.0 mm
10:10 PM 7.5°F-13.6°C 2.6°F-16.3°C 80% Calm Calm -- 30.25 in1024.4 mb - 0.00 in0.0 mm 0.00 in0.0 mm
10:20 PM 6.7°F-14.1°C 2.4°F-16.4°C 82% Calm Calm -- 30.25 in1024.4 mb - 0.00 in0.0 mm 0.00 in0.0 mm
10:30 PM 6.7°F-14.1°C 2.9°F-16.2°C 84% Calm Calm -- 30.25 in1024.4 mb - 0.00 in0.0 mm 0.00 in0.0 mm
10:40 PM 6.9°F-13.9°C 2.6°F-16.3°C 82% Calm Calm -- 30.24 in1024.0 mb - 0.00 in0.0 mm 0.00 in0.0 mm
10:50 PM 6.5°F-14.2°C 2.2°F-16.6°C 82% Calm Calm -- 30.24 in1024.0 mb - 0.00 in0.0 mm 0.00 in0.0 mm
11:00 PM 6.1°F-14.4°C 1.8°F-16.8°C 82% Calm Calm -- 30.23 in1023.7 mb - 0.00 in0.0 mm 0.00 in0.0 mm
11:10 PM 4.9°F-15.1°C 1.1°F-17.2°C 84% Calm Calm -- 30.24 in1024.0 mb - 0.00 in0.0 mm 0.00 in0.0 mm
11:20 PM 4.6°F-15.2°C 1.1°F-17.2°C 85% Calm Calm -- 30.24 in1024.0 mb - 0.00 in0.0 mm 0.00 in0.0 mm
11:30 PM 4.1°F-15.5°C 0.8°F-17.3°C 86% Calm Calm -- 30.25 in1024.4 mb - 0.00 in0.0 mm 0.00 in0.0 mm
11:40 PM 4.2°F-15.4°C 1.2°F-17.1°C 87% Calm Calm -- 30.25 in1024.4 mb - 0.00 in0.0 mm 0.00 in0.0 mm
11:50 PM 4.6°F-15.2°C 1.3°F-17.1°C 86% Calm Calm -- 30.25 in1024.4 mb - 0.00 in0.0 mm 0.00 in0.0 mm